createdAt,value
2018-08-12T00:02:08.616Z,244.95
2018-08-12T00:04:38.847Z,253.65
2018-08-12T00:07:09.016Z,251.15
2018-08-12T00:09:39.268Z,239.55
2018-08-12T00:12:09.540Z,227.47
2018-08-12T00:14:39.953Z,243.48
2018-08-12T00:17:10.477Z,245.12
2018-08-12T00:19:40.804Z,246.60
2018-08-12T00:22:11.076Z,237.72
2018-08-12T00:24:41.349Z,257.45
2018-08-12T00:27:11.466Z,248.75
2018-08-12T00:29:41.624Z,233.72
2018-08-12T00:32:12.077Z,245.17
2018-08-12T00:34:42.412Z,231.87
2018-08-12T00:37:12.610Z,242.40
2018-08-12T00:39:42.812Z,238.72
2018-08-12T00:42:13.056Z,239.23
2018-08-12T00:44:43.250Z,229.68
2018-08-12T00:47:13.458Z,227.87
2018-08-12T00:49:43.869Z,231.63
2018-08-12T00:52:14.289Z,230.62
2018-08-12T00:54:44.568Z,235.57
2018-08-12T00:57:14.741Z,245.85
2018-08-12T00:59:44.920Z,232.85
2018-08-12T01:02:15.126Z,232.30
2018-08-12T01:04:45.220Z,224.60
2018-08-12T01:07:15.819Z,226.70
2018-08-12T01:09:46.082Z,237.50
2018-08-12T01:12:16.333Z,230.98
2018-08-12T01:14:46.514Z,230.43
2018-08-12T01:17:16.704Z,232.37
2018-08-12T01:19:46.924Z,238.12
2018-08-12T01:22:17.279Z,243.67
2018-08-12T01:24:47.445Z,231.85
2018-08-12T01:27:18.656Z,225.35
2018-08-12T01:29:48.772Z,230.80
2018-08-12T01:32:18.961Z,234.25
2018-08-12T01:34:49.068Z,228.07
2018-08-12T01:37:19.297Z,236.90
2018-08-12T01:39:49.608Z,232.95
2018-08-12T01:42:20.067Z,242.43
2018-08-12T01:44:50.403Z,229.32
2018-08-12T01:47:20.736Z,236.10
2018-08-12T01:49:51.170Z,224.95
2018-08-12T01:52:21.607Z,227.20
2018-08-12T01:54:51.935Z,225.22
2018-08-12T01:57:22.181Z,223.62
2018-08-12T01:59:52.712Z,226.25
2018-08-12T02:02:23.378Z,228.80
2018-08-12T02:04:53.807Z,225.18
2018-08-12T02:10:20.376Z,230.55
2018-08-12T02:12:50.548Z,230.10
2018-08-12T02:15:20.796Z,229.63
2018-08-12T02:17:51.150Z,226.98
2018-08-12T02:20:21.380Z,227.55
2018-08-12T02:22:51.700Z,225.20
2018-08-12T02:25:22.011Z,225.95
2018-08-12T02:27:52.182Z,226.55
2018-08-12T02:30:22.400Z,220.70
2018-08-12T02:32:52.653Z,221.40
2018-08-12T02:35:22.802Z,222.17
2018-08-12T02:37:53.051Z,222.20
2018-08-12T02:40:23.885Z,223.32
2018-08-12T02:42:54.193Z,234.70
2018-08-12T02:45:26.127Z,221.25
2018-08-12T02:47:56.454Z,235.28
2018-08-12T02:50:26.953Z,223.30
2018-08-12T02:52:57.052Z,223.03
2018-08-12T02:55:27.751Z,230.18
2018-08-12T02:57:58.102Z,253.18
2018-08-12T03:00:28.424Z,232.32
2018-08-12T03:02:58.628Z,223.40
2018-08-12T03:05:31.293Z,219.80
2018-08-12T03:08:03.032Z,220.25
2018-08-12T03:10:33.713Z,215.95
2018-08-12T03:13:05.366Z,223.15
2018-08-12T03:15:36.042Z,216.38
2018-08-12T03:18:07.009Z,215.57
2018-08-12T03:20:37.685Z,221.75
2018-08-12T03:23:09.500Z,215.68
2018-08-12T03:25:40.352Z,213.57
2018-08-12T03:28:11.807Z,216.20
2018-08-12T03:30:42.048Z,225.47
2018-08-12T03:33:12.671Z,219.53
2018-08-12T03:35:43.193Z,221.50
2018-08-12T03:38:13.351Z,215.92
2018-08-12T03:40:43.687Z,221.87
2018-08-12T03:43:13.939Z,222.88
2018-08-12T03:45:44.199Z,228.07
2018-08-12T03:48:14.565Z,225.75
2018-08-12T03:50:44.949Z,227.15
2018-08-12T03:53:15.108Z,219.30
2018-08-12T03:55:45.293Z,221.70
2018-08-12T03:58:15.399Z,218.48
2018-08-12T04:00:45.592Z,218.63
2018-08-12T04:03:15.929Z,217.20
2018-08-12T04:05:46.077Z,220.10
2018-08-12T04:08:16.219Z,214.38
2018-08-12T04:10:46.375Z,223.18
2018-08-12T04:13:16.637Z,217.68
2018-08-12T04:15:46.923Z,229.32
2018-08-12T04:18:17.036Z,223.82
2018-08-12T04:20:47.232Z,226.35
2018-08-12T04:23:17.512Z,218.60
2018-08-12T04:25:47.833Z,223.28
2018-08-12T04:28:18.264Z,222.17
2018-08-12T04:30:48.516Z,218.97
2018-08-12T04:33:18.587Z,224.92
2018-08-12T04:35:48.863Z,224.30
2018-08-12T04:38:18.936Z,223.13
2018-08-12T04:40:49.260Z,228.20
2018-08-12T04:43:19.275Z,227.18
2018-08-12T04:45:49.468Z,221.22
2018-08-12T04:48:19.691Z,217.22
2018-08-12T04:50:49.983Z,218.75
2018-08-12T04:53:20.716Z,219.10
2018-08-12T04:55:50.896Z,222.60
2018-08-12T04:58:21.057Z,222.70
2018-08-12T05:00:51.323Z,225.80
2018-08-12T05:03:22.184Z,226.60
2018-08-12T05:05:55.091Z,226.98
2018-08-12T05:08:25.302Z,219.85
2018-08-12T05:10:55.483Z,230.95
2018-08-12T05:13:25.919Z,233.78
2018-08-12T05:15:56.184Z,228.45
2018-08-12T05:18:26.884Z,228.52
2018-08-12T05:20:56.939Z,236.28
2018-08-12T05:23:27.109Z,225.60
2018-08-12T05:25:57.413Z,235.48
2018-08-12T05:28:27.531Z,228.00
2018-08-12T05:30:57.809Z,229.47
2018-08-12T05:33:28.311Z,220.57
2018-08-12T05:35:58.591Z,230.27
2018-08-12T05:38:28.851Z,233.05
2018-08-12T05:40:59.258Z,227.95
2018-08-12T05:43:29.507Z,230.83
2018-08-12T05:45:59.711Z,232.65
2018-08-12T05:48:29.946Z,223.28
2018-08-12T05:51:00.250Z,235.25
2018-08-12T05:53:30.482Z,231.78
2018-08-12T05:56:01.188Z,229.93
2018-08-12T05:58:31.563Z,228.58
2018-08-12T06:01:02.044Z,234.60
2018-08-12T06:03:32.362Z,232.62
2018-08-12T06:06:02.832Z,229.20
2018-08-12T06:08:33.132Z,231.35
2018-08-12T06:11:03.720Z,230.12
2018-08-12T06:13:33.975Z,239.15
2018-08-12T06:16:04.774Z,243.80
2018-08-12T06:18:34.920Z,230.22
2018-08-12T06:21:05.213Z,238.00
2018-08-12T06:23:35.341Z,231.53
2018-08-12T06:26:05.517Z,238.52
2018-08-12T06:28:35.774Z,237.63
2018-08-12T06:31:05.933Z,239.55
2018-08-12T06:33:36.081Z,240.70
2018-08-12T06:36:06.232Z,233.87
2018-08-12T06:38:36.587Z,232.83
2018-08-12T06:41:06.696Z,231.95
2018-08-12T06:43:36.853Z,239.85
2018-08-12T06:46:07.631Z,243.73
2018-08-12T06:48:38.502Z,243.60
2018-08-12T06:51:08.648Z,243.60
2018-08-12T06:53:39.872Z,235.68
2018-08-12T06:56:10.061Z,239.00
2018-08-12T06:58:40.821Z,246.65
2018-08-12T07:01:10.952Z,244.85
2018-08-12T07:03:41.911Z,247.15
2018-08-12T07:06:12.283Z,248.75
2018-08-12T07:08:45.379Z,256.95
2018-08-12T07:11:15.980Z,248.03
2018-08-12T07:13:46.431Z,250.35
2018-08-12T07:16:16.881Z,265.00
2018-08-12T07:18:47.368Z,248.40
2018-08-12T07:21:19.100Z,259.15
2018-08-12T07:23:50.225Z,260.45
2018-08-12T07:26:21.722Z,250.00
2018-08-12T07:28:53.135Z,253.55
2018-08-12T07:31:25.039Z,253.47
2018-08-12T07:33:55.336Z,273.18
2018-08-12T07:36:25.508Z,261.68
2018-08-12T07:38:55.896Z,267.65
2018-08-12T07:41:26.433Z,260.93
2018-08-12T07:44:00.280Z,274.65
2018-08-12T07:46:31.576Z,274.23
2018-08-12T07:49:01.741Z,292.25
2018-08-12T07:51:32.186Z,273.38
2018-08-12T07:54:04.062Z,275.40
2018-08-12T07:56:34.790Z,278.00
2018-08-12T07:59:05.532Z,288.20
2018-08-12T08:01:35.912Z,276.82
2018-08-12T08:04:07.110Z,291.85
2018-08-12T08:06:37.392Z,281.30
2018-08-12T08:09:13.139Z,290.57
2018-08-12T08:11:43.952Z,281.95
2018-08-12T08:14:14.152Z,278.23
2018-08-12T08:16:44.657Z,284.43
2018-08-12T08:19:14.867Z,287.10
2018-08-12T08:21:45.098Z,258.40
2018-08-12T08:24:15.727Z,260.20
2018-08-12T08:26:46.262Z,291.93
2018-08-12T08:29:17.188Z,287.05
2018-08-12T08:31:48.071Z,282.55
2018-08-12T08:34:18.316Z,305.45
2018-08-12T08:36:48.499Z,301.35
2018-08-12T08:39:18.758Z,291.73
2018-08-12T08:41:50.052Z,285.77
2018-08-12T08:44:21.424Z,292.18
2018-08-12T08:46:56.526Z,290.75
2018-08-12T08:49:31.057Z,302.62
2018-08-12T08:52:08.972Z,298.77
2018-08-12T08:54:40.003Z,301.37
2018-08-12T08:57:12.319Z,292.50
2018-08-12T08:59:42.681Z,279.90
2018-08-12T09:02:15.190Z,287.30
2018-08-12T09:04:45.552Z,285.45
2018-08-12T09:07:15.661Z,289.80
2018-08-12T09:09:45.946Z,286.73
2018-08-12T09:12:16.514Z,296.23
2018-08-12T09:14:47.099Z,313.48
2018-08-12T09:17:18.284Z,304.50
2018-08-12T09:19:50.407Z,316.80
2018-08-12T09:22:21.216Z,191.22
2018-08-12T09:24:52.045Z,999.90
2018-08-12T09:27:22.907Z,999.90
2018-08-12T09:29:55.198Z,999.90
2018-08-12T09:32:25.694Z,999.90
2018-08-12T09:34:56.215Z,999.90
2018-08-12T09:37:26.812Z,999.90
2018-08-12T09:39:57.112Z,999.90
2018-08-12T09:42:27.229Z,999.90
2018-08-12T09:44:57.717Z,987.90
2018-08-12T09:47:28.012Z,999.90
2018-08-12T09:49:58.204Z,999.90
2018-08-12T09:52:29.071Z,999.90
2018-08-12T09:54:59.524Z,999.90
2018-08-12T09:57:30.355Z,990.20
2018-08-12T10:00:01.216Z,999.90
2018-08-12T10:02:31.658Z,999.90
2018-08-12T10:05:01.864Z,999.90
2018-08-12T10:07:32.258Z,999.90
2018-08-12T10:10:02.556Z,999.90
2018-08-12T10:12:32.996Z,999.90
2018-08-12T10:15:03.612Z,999.90
2018-08-12T10:17:34.607Z,999.90
2018-08-12T10:20:06.935Z,999.90
2018-08-12T10:22:37.333Z,999.90
2018-08-12T10:25:09.272Z,999.90
2018-08-12T10:27:41.118Z,999.90
2018-08-12T10:30:13.904Z,999.90
2018-08-12T10:32:44.332Z,999.90
2018-08-12T10:35:16.240Z,999.90
2018-08-12T10:37:47.091Z,999.90
2018-08-12T10:40:21.016Z,999.90
2018-08-12T10:42:54.661Z,999.90
2018-08-12T10:45:30.165Z,999.90
2018-08-12T10:48:02.530Z,999.90
2018-08-12T10:50:35.676Z,999.90
2018-08-12T10:53:07.968Z,999.90
2018-08-12T10:55:42.817Z,999.90
2018-08-12T10:58:18.317Z,999.90
2018-08-12T11:00:54.846Z,999.90
2018-08-12T11:03:30.340Z,999.90
2018-08-12T11:06:03.497Z,999.90
2018-08-12T11:08:35.535Z,999.90
2018-08-12T11:11:06.649Z,999.90
2018-08-12T11:13:37.364Z,999.90
2018-08-12T11:16:07.608Z,999.90
2018-08-12T11:18:38.013Z,999.90
2018-08-12T11:21:08.208Z,999.90
2018-08-12T11:23:38.427Z,999.90
2018-08-12T11:26:08.685Z,999.90
2018-08-12T11:28:39.084Z,999.90
2018-08-12T11:31:09.275Z,999.90
2018-08-12T11:33:40.037Z,999.90
2018-08-12T11:36:10.404Z,999.90
2018-08-12T11:38:40.632Z,999.90
2018-08-12T11:41:11.122Z,999.90
2018-08-12T11:43:42.430Z,999.90
2018-08-12T11:46:12.935Z,999.90
2018-08-12T11:48:45.903Z,999.90
2018-08-12T11:51:17.374Z,999.90
2018-08-12T11:53:47.905Z,999.90
2018-08-12T11:56:18.779Z,999.90
2018-08-12T11:58:49.116Z,999.90
2018-08-12T12:01:22.542Z,999.90
2018-08-12T12:03:53.438Z,999.90
2018-08-12T12:06:23.619Z,999.90
2018-08-12T12:08:55.129Z,999.90
2018-08-12T12:11:25.351Z,999.90
2018-08-12T12:13:55.639Z,999.90
2018-08-12T12:16:26.064Z,999.90
2018-08-12T12:18:56.210Z,999.90
2018-08-12T12:21:26.465Z,999.90
2018-08-12T12:23:56.692Z,999.90
2018-08-12T12:26:26.912Z,999.90
2018-08-12T12:28:57.128Z,999.90
2018-08-12T12:31:27.539Z,999.90
2018-08-12T12:33:57.824Z,999.90
2018-08-12T12:36:28.843Z,999.90
2018-08-12T12:38:59.191Z,999.90
2018-08-12T12:41:29.483Z,999.90
2018-08-12T12:43:59.790Z,999.90
2018-08-12T12:46:30.197Z,999.90
2018-08-12T12:49:00.540Z,999.90
2018-08-12T12:51:30.880Z,999.90
2018-08-12T12:54:01.609Z,999.90
2018-08-12T12:56:32.131Z,999.90
2018-08-12T12:59:02.424Z,999.90
2018-08-12T13:01:32.896Z,999.90
2018-08-12T13:04:04.666Z,999.90
2018-08-12T13:06:35.596Z,999.90
2018-08-12T13:09:09.367Z,999.90
2018-08-12T13:11:39.422Z,999.90
2018-08-12T13:14:12.602Z,999.90
2018-08-12T13:16:43.134Z,999.90
2018-08-12T13:19:13.560Z,999.90
2018-08-12T13:21:43.818Z,999.90
2018-08-12T13:24:13.975Z,999.90
2018-08-12T13:26:44.840Z,999.90
2018-08-12T13:29:15.116Z,999.90
2018-08-12T13:31:45.564Z,999.90
2018-08-12T13:34:15.760Z,999.90
2018-08-12T13:36:51.854Z,999.90
2018-08-12T13:39:22.452Z,999.90
2018-08-12T13:41:52.613Z,999.90
2018-08-12T13:44:22.922Z,999.90
2018-08-12T13:46:53.207Z,999.90
2018-08-12T13:49:23.647Z,999.90
2018-08-12T13:51:54.477Z,999.90
2018-08-12T13:54:25.065Z,999.90
2018-08-12T13:56:55.329Z,999.90
2018-08-12T13:59:25.684Z,999.90
2018-08-12T14:02:00.978Z,999.90
2018-08-12T14:04:32.079Z,999.90
2018-08-12T14:07:03.317Z,999.90
2018-08-12T14:09:33.573Z,999.90
2018-08-12T14:12:04.759Z,999.90
2018-08-12T14:14:34.938Z,999.90
2018-08-12T14:17:05.149Z,999.90
2018-08-12T14:19:35.696Z,985.00
2018-08-12T14:22:06.296Z,999.90
2018-08-12T14:24:36.504Z,999.90
2018-08-12T14:27:06.755Z,999.90
2018-08-12T14:29:36.977Z,999.90
2018-08-12T14:32:07.261Z,999.90
2018-08-12T14:34:37.931Z,992.95
2018-08-12T14:37:08.224Z,977.37
2018-08-12T14:39:38.661Z,999.90
2018-08-12T14:42:09.154Z,923.20
2018-08-12T14:44:39.685Z,972.60
2018-08-12T14:47:10.201Z,995.17
2018-08-12T14:49:40.288Z,927.25
2018-08-12T14:52:10.602Z,962.57
2018-08-12T14:54:40.767Z,924.35
2018-08-12T14:57:11.049Z,946.67
2018-08-12T14:59:41.250Z,985.15
2018-08-12T15:02:11.370Z,948.75
2018-08-12T15:04:41.536Z,967.13
2018-08-12T15:07:11.822Z,982.60
2018-08-12T15:09:42.065Z,973.78
2018-08-12T15:12:12.328Z,977.97
2018-08-12T15:14:42.821Z,929.87
2018-08-12T15:17:13.076Z,958.42
2018-08-12T15:19:43.719Z,979.40
2018-08-12T15:22:14.490Z,972.30
2018-08-12T15:24:44.705Z,954.63
2018-08-12T15:27:14.995Z,999.90
2018-08-12T15:29:45.247Z,952.45
2018-08-12T15:32:15.612Z,998.93
2018-08-12T15:34:46.126Z,976.90
2018-08-12T15:37:16.295Z,999.10
2018-08-12T15:39:46.956Z,999.90
2018-08-12T15:42:17.155Z,999.90
2018-08-12T15:44:47.728Z,877.40
2018-08-12T15:47:17.883Z,959.33
2018-08-12T15:49:48.209Z,930.72
2018-08-12T15:52:18.334Z,999.90
2018-08-12T15:54:48.575Z,944.70
2018-08-12T15:57:18.788Z,958.38
2018-08-12T15:59:49.007Z,944.80
2018-08-12T16:02:19.320Z,963.48
2018-08-12T16:04:49.653Z,957.10
2018-08-12T16:07:19.859Z,937.55
2018-08-12T16:09:50.088Z,956.67
2018-08-12T16:12:20.384Z,948.53
2018-08-12T16:14:50.684Z,962.97
2018-08-12T16:17:20.997Z,997.80
2018-08-12T16:19:51.416Z,997.52
2018-08-12T16:22:22.470Z,997.20
2018-08-12T16:24:52.896Z,923.72
2018-08-12T16:27:23.333Z,972.70
2018-08-12T16:29:53.741Z,962.27
2018-08-12T16:32:24.156Z,957.47
2018-08-12T16:34:54.461Z,941.27
2018-08-12T16:37:24.641Z,953.48
2018-08-12T16:39:55.020Z,946.05
2018-08-12T16:42:25.849Z,929.27
2018-08-12T16:44:56.249Z,943.77
2018-08-12T16:47:26.557Z,952.75
2018-08-12T16:49:57.217Z,952.00
2018-08-12T16:52:28.177Z,977.33
2018-08-12T16:54:58.661Z,971.75
2018-08-12T16:57:28.972Z,919.37
2018-08-12T16:59:59.230Z,932.73
2018-08-12T17:02:30.345Z,932.58
2018-08-12T17:05:00.664Z,922.78
2018-08-12T17:07:30.998Z,964.58
2018-08-12T17:10:01.897Z,965.50
2018-08-12T17:12:33.027Z,997.10
2018-08-12T17:15:04.267Z,999.90
2018-08-12T17:17:34.619Z,948.98
2018-08-12T17:20:06.033Z,939.40
2018-08-12T17:22:36.435Z,949.77
2018-08-12T17:25:07.731Z,976.35
2018-08-12T17:27:38.780Z,919.48
2018-08-12T17:30:13.237Z,898.90
2018-08-12T17:32:44.147Z,907.40
2018-08-12T17:35:14.595Z,906.05
2018-08-12T17:37:45.748Z,943.15
2018-08-12T17:40:16.684Z,949.15
2018-08-12T17:42:46.972Z,904.72
2018-08-12T17:45:17.202Z,859.58
2018-08-12T17:47:47.708Z,906.35
2018-08-12T17:50:18.768Z,905.18
2018-08-12T17:52:48.957Z,983.30
2018-08-12T17:55:20.529Z,933.50
2018-08-12T17:57:50.760Z,875.40
2018-08-12T18:00:21.017Z,928.22
2018-08-12T18:02:51.260Z,889.60
2018-08-12T18:05:24.040Z,918.52
2018-08-12T18:07:54.889Z,899.25
2018-08-12T18:10:27.080Z,937.03
2018-08-12T18:12:57.916Z,938.92
2018-08-12T18:15:28.635Z,896.42
2018-08-12T18:17:58.893Z,929.42
2018-08-12T18:20:31.445Z,949.70
2018-08-12T18:23:03.383Z,925.62
2018-08-12T18:25:33.861Z,914.02
2018-08-12T18:28:06.276Z,896.55
2018-08-12T18:30:36.505Z,885.22
2018-08-12T18:33:08.932Z,961.08
2018-08-12T18:35:39.242Z,931.98
2018-08-12T18:38:10.904Z,912.57
2018-08-12T18:40:41.487Z,922.55
2018-08-12T18:43:13.296Z,894.43
2018-08-12T18:45:43.524Z,867.37
2018-08-12T18:48:13.992Z,849.95
2018-08-12T18:50:44.335Z,899.32
2018-08-12T18:53:15.008Z,873.70
2018-08-12T18:55:45.508Z,922.15
2018-08-12T18:58:15.662Z,943.45
2018-08-12T19:00:45.879Z,915.83
2018-08-12T19:03:16.091Z,921.75
2018-08-12T19:05:46.491Z,912.23
2018-08-12T19:08:17.159Z,903.70
2018-08-12T19:10:51.741Z,858.38
2018-08-12T19:13:23.065Z,816.15
2018-08-12T19:15:56.051Z,833.47
2018-08-12T19:18:26.515Z,835.25
2018-08-12T19:20:57.169Z,854.42
2018-08-12T19:23:27.534Z,860.95
2018-08-12T19:25:58.108Z,806.23
2018-08-12T19:28:29.936Z,851.88
2018-08-12T19:31:00.701Z,789.78
2018-08-12T19:33:33.423Z,754.95
2018-08-12T19:36:06.252Z,776.60
2018-08-12T19:38:39.180Z,783.35
2018-08-12T19:41:12.086Z,840.02
2018-08-12T19:43:45.460Z,842.95
2018-08-12T19:46:17.418Z,846.30
2018-08-12T19:48:49.249Z,830.98
2018-08-12T19:51:19.997Z,815.85
2018-08-12T19:53:51.378Z,811.58
2018-08-12T19:56:21.823Z,798.73
2018-08-12T19:58:52.206Z,831.27
2018-08-12T20:01:22.561Z,766.90
2018-08-12T20:03:53.041Z,836.08
2018-08-12T20:06:24.620Z,814.87
2018-08-12T20:08:55.257Z,800.28
2018-08-12T20:11:27.335Z,834.28
2018-08-12T20:13:58.086Z,802.15
2018-08-12T20:16:30.189Z,819.52
2018-08-12T20:19:01.074Z,794.08
2018-08-12T20:21:31.676Z,804.42
2018-08-12T20:24:03.467Z,777.70
2018-08-12T20:26:34.517Z,757.25
2018-08-12T20:29:05.445Z,789.65
2018-08-12T20:31:36.443Z,705.15
2018-08-12T20:34:07.169Z,785.70
2018-08-12T20:36:38.390Z,725.80
2018-08-12T20:39:11.707Z,717.80
2018-08-12T20:41:42.761Z,740.15
2018-08-12T20:44:13.737Z,750.38
2018-08-12T20:46:44.251Z,688.22
2018-08-12T20:49:14.915Z,689.70
2018-08-12T20:51:45.125Z,742.87
2018-08-12T20:54:15.364Z,726.85
2018-08-12T20:56:45.858Z,695.80
2018-08-12T20:59:17.696Z,744.00
2018-08-12T21:01:49.247Z,715.77
2018-08-12T21:04:25.562Z,717.80
2018-08-12T21:06:57.149Z,753.70
2018-08-12T21:09:27.791Z,769.47
2018-08-12T21:11:58.529Z,769.23
2018-08-12T21:14:28.878Z,757.55
2018-08-12T21:16:59.712Z,739.27
2018-08-12T21:19:30.630Z,716.10
2018-08-12T21:22:02.353Z,744.47
2018-08-12T21:24:32.635Z,669.58
2018-08-12T21:27:02.908Z,762.50
2018-08-12T21:29:33.315Z,742.77
2018-08-12T21:32:04.624Z,687.23
2018-08-12T21:34:34.942Z,710.50
2018-08-12T21:37:05.330Z,740.42
2018-08-12T21:39:35.675Z,714.63
2018-08-12T21:42:05.917Z,714.58
2018-08-12T21:44:36.263Z,680.92
2018-08-12T21:47:07.090Z,656.00
2018-08-12T21:49:37.457Z,675.48
2018-08-12T21:52:07.797Z,671.37
2018-08-12T21:54:38.153Z,690.83
2018-08-12T21:57:09.494Z,729.50
2018-08-12T21:59:40.158Z,703.48
2018-08-12T22:02:10.480Z,672.70
2018-08-12T22:04:40.734Z,696.15
2018-08-12T22:07:11.093Z,667.00
2018-08-12T22:09:41.928Z,673.52
2018-08-12T22:12:12.216Z,688.20
2018-08-12T22:14:43.479Z,725.92
2018-08-12T22:17:13.820Z,658.77
2018-08-12T22:19:44.094Z,677.58
2018-08-12T22:22:14.684Z,685.70
2018-08-12T22:24:44.915Z,708.90
2018-08-12T22:27:15.221Z,679.23
2018-08-12T22:29:45.319Z,671.58
2018-08-12T22:32:15.960Z,740.47
2018-08-12T22:34:46.294Z,702.70
2018-08-12T22:37:16.600Z,749.30
2018-08-12T22:39:46.820Z,724.05
2018-08-12T22:42:17.281Z,674.55
2018-08-12T22:44:47.484Z,674.55
2018-08-12T22:47:17.838Z,688.03
2018-08-12T22:49:48.469Z,665.00
2018-08-12T22:52:18.677Z,664.75
2018-08-12T22:54:49.013Z,676.10
2018-08-12T22:57:19.310Z,677.95
2018-08-12T22:59:49.851Z,664.87
2018-08-12T23:02:20.156Z,745.77
2018-08-12T23:04:50.427Z,753.45
2018-08-12T23:07:20.902Z,726.42
2018-08-12T23:09:51.197Z,704.48
2018-08-12T23:12:22.649Z,724.10
2018-08-12T23:14:53.239Z,682.30
2018-08-12T23:17:23.534Z,755.50
2018-08-12T23:19:53.960Z,759.75
2018-08-12T23:25:20.968Z,776.80
2018-08-12T23:27:54.080Z,742.45
2018-08-12T23:30:24.140Z,791.27
2018-08-12T23:32:54.499Z,746.08
2018-08-12T23:35:25.125Z,780.85
2018-08-12T23:37:55.710Z,777.00
2018-08-12T23:40:29.216Z,746.22
2018-08-12T23:42:59.517Z,751.65
2018-08-12T23:45:32.696Z,745.88
2018-08-12T23:48:04.361Z,700.10
2018-08-12T23:50:35.052Z,679.62
2018-08-12T23:53:06.281Z,698.08
2018-08-12T23:55:40.423Z,681.65
2018-08-12T23:58:12.880Z,712.35
